sensor_id;sensor_type;location;lat;lon;timestamp;pressure;altitude;pressure_sealevel;temperature;humidity
9474;BME280;8865;47.636;7.692;2022-11-20T00:01:29;97974.59;;;7.47;100.00
9474;BME280;8865;47.636;7.692;2022-11-20T00:03:56;97982.66;;;7.44;100.00
9474;BME280;8865;47.636;7.692;2022-11-20T00:06:24;97981.38;;;7.39;100.00
9474;BME280;8865;47.636;7.692;2022-11-20T00:08:50;97978.75;;;7.39;100.00
9474;BME280;8865;47.636;7.692;2022-11-20T00:11:19;97985.50;;;7.41;100.00
9474;BME280;8865;47.636;7.692;2022-11-20T00:13:48;97989.75;;;7.42;100.00
9474;BME280;8865;47.636;7.692;2022-11-20T00:16:16;97994.28;;;7.40;100.00
9474;BME280;8865;47.636;7.692;2022-11-20T00:18:43;97985.72;;;7.38;100.00
9474;BME280;8865;47.636;7.692;2022-11-20T00:21:13;97981.38;;;7.39;100.00
9474;BME280;8865;47.636;7.692;2022-11-20T00:23:39;97989.06;;;7.40;100.00
9474;BME280;8865;47.636;7.692;2022-11-20T00:26:07;97988.94;;;7.42;100.00
9474;BME280;8865;47.636;7.692;2022-11-20T00:28:34;97988.81;;;7.43;100.00
9474;BME280;8865;47.636;7.692;2022-11-20T00:31:04;97987.97;;;7.43;100.00
9474;BME280;8865;47.636;7.692;2022-11-20T00:33:31;97984.06;;;7.37;100.00
9474;BME280;8865;47.636;7.692;2022-11-20T00:36:13;97983.94;;;7.27;100.00
9474;BME280;8865;47.636;7.692;2022-11-20T00:38:40;97987.28;;;7.18;100.00
9474;BME280;8865;47.636;7.692;2022-11-20T00:41:08;97987.84;;;7.10;100.00
9474;BME280;8865;47.636;7.692;2022-11-20T00:43:35;97992.34;;;7.08;100.00
9474;BME280;8865;47.636;7.692;2022-11-20T00:46:09;97999.66;;;7.03;100.00
9474;BME280;8865;47.636;7.692;2022-11-20T00:48:35;97996.72;;;6.96;100.00
9474;BME280;8865;47.636;7.692;2022-11-20T00:51:02;97993.41;;;6.94;100.00
9474;BME280;8865;47.636;7.692;2022-11-20T00:53:28;97994.34;;;6.93;100.00
9474;BME280;8865;47.636;7.692;2022-11-20T00:55:55;97995.28;;;6.92;100.00
9474;BME280;8865;47.636;7.692;2022-11-20T00:58:23;97994.56;;;6.90;100.00
9474;BME280;8865;47.636;7.692;2022-11-20T01:00:49;98006.88;;;6.88;100.00
9474;BME280;8865;47.636;7.692;2022-11-20T01:03:17;98013.84;;;6.88;100.00
9474;BME280;8865;47.636;7.692;2022-11-20T01:05:43;98017.31;;;6.88;100.00
9474;BME280;8865;47.636;7.692;2022-11-20T01:08:09;98016.34;;;6.89;100.00
9474;BME280;8865;47.636;7.692;2022-11-20T01:10:36;98015.16;;;6.93;100.00
9474;BME280;8865;47.636;7.692;2022-11-20T01:13:02;98008.78;;;6.97;100.00
9474;BME280;8865;47.636;7.692;2022-11-20T01:15:46;98011.06;;;7.02;100.00
9474;BME280;8865;47.636;7.692;2022-11-20T01:18:12;98006.66;;;7.03;100.00
9474;BME280;8865;47.636;7.692;2022-11-20T01:20:38;98010.81;;;7.05;100.00
9474;BME280;8865;47.636;7.692;2022-11-20T01:23:04;98011.63;;;7.06;100.00
9474;BME280;8865;47.636;7.692;2022-11-20T01:25:34;98018.50;;;7.07;100.00
9474;BME280;8865;47.636;7.692;2022-11-20T01:28:00;98016.72;;;7.07;100.00
9474;BME280;8865;47.636;7.692;2022-11-20T01:30:26;98018.50;;;7.07;100.00
9474;BME280;8865;47.636;7.692;2022-11-20T01:32:52;98019.56;;;7.04;100.00
9474;BME280;8865;47.636;7.692;2022-11-20T01:35:17;98016.16;;;7.04;100.00
9474;BME280;8865;47.636;7.692;2022-11-20T01:37:43;98023.34;;;7.00;100.00
9474;BME280;8865;47.636;7.692;2022-11-20T01:40:10;98014.13;;;6.96;100.00
9474;BME280;8865;47.636;7.692;2022-11-20T01:42:36;98019.22;;;6.97;100.00
9474;BME280;8865;47.636;7.692;2022-11-20T01:45:59;98017.78;;;6.93;100.00
9474;BME280;8865;47.636;7.692;2022-11-20T01:48:31;98020.00;;;6.87;100.00
9474;BME280;8865;47.636;7.692;2022-11-20T01:50:59;98014.31;;;6.82;100.00
9474;BME280;8865;47.636;7.692;2022-11-20T01:53:32;98018.81;;;6.79;100.00
9474;BME280;8865;47.636;7.692;2022-11-20T01:56:01;98020.19;;;6.72;100.00
9474;BME280;8865;47.636;7.692;2022-11-20T01:58:33;98017.38;;;6.75;100.00
9474;BME280;8865;47.636;7.692;2022-11-20T02:01:02;98022.47;;;6.77;100.00
9474;BME280;8865;47.636;7.692;2022-11-20T02:03:28;98029.22;;;6.79;100.00
9474;BME280;8865;47.636;7.692;2022-11-20T02:06:14;98029.91;;;6.82;100.00
9474;BME280;8865;47.636;7.692;2022-11-20T02:08:42;98032.75;;;6.78;100.00
9474;BME280;8865;47.636;7.692;2022-11-20T02:11:08;98033.38;;;6.82;100.00
9474;BME280;8865;47.636;7.692;2022-11-20T02:13:34;98035.13;;;6.82;100.00
9474;BME280;8865;47.636;7.692;2022-11-20T02:16:12;98021.78;;;6.86;100.00
9474;BME280;8865;47.636;7.692;2022-11-20T02:18:40;98017.66;;;6.84;100.00
9474;BME280;8865;47.636;7.692;2022-11-20T02:24:12;98015.63;;;6.87;100.00
9474;BME280;8865;47.636;7.692;2022-11-20T02:26:46;98016.44;;;6.88;100.00
9474;BME280;8865;47.636;7.692;2022-11-20T02:29:15;98011.25;;;6.88;100.00
9474;BME280;8865;47.636;7.692;2022-11-20T02:31:43;98022.38;;;6.90;100.00
9474;BME280;8865;47.636;7.692;2022-11-20T02:34:12;98024.66;;;6.94;100.00
9474;BME280;8865;47.636;7.692;2022-11-20T02:36:39;98021.94;;;6.96;100.00
9474;BME280;8865;47.636;7.692;2022-11-20T02:39:06;98020.84;;;6.98;100.00
9474;BME280;8865;47.636;7.692;2022-11-20T02:41:34;98025.25;;;6.98;100.00
9474;BME280;8865;47.636;7.692;2022-11-20T02:44:01;98016.50;;;6.99;100.00
9474;BME280;8865;47.636;7.692;2022-11-20T02:46:45;98013.53;;;7.04;100.00
9474;BME280;8865;47.636;7.692;2022-11-20T02:49:11;98017.66;;;7.06;100.00
9474;BME280;8865;47.636;7.692;2022-11-20T02:51:37;98014.84;;;7.09;100.00
9474;BME280;8865;47.636;7.692;2022-11-20T02:54:06;98018.06;;;7.13;100.00
9474;BME280;8865;47.636;7.692;2022-11-20T02:56:32;98007.75;;;7.11;100.00
9474;BME280;8865;47.636;7.692;2022-11-20T02:58:58;98002.31;;;7.14;100.00
9474;BME280;8865;47.636;7.692;2022-11-20T03:01:24;97997.09;;;7.14;100.00
9474;BME280;8865;47.636;7.692;2022-11-20T03:03:50;98007.28;;;7.18;100.00
9474;BME280;8865;47.636;7.692;2022-11-20T03:06:16;98008.69;;;7.22;100.00
9474;BME280;8865;47.636;7.692;2022-11-20T03:08:42;98012.16;;;7.22;100.00
9474;BME280;8865;47.636;7.692;2022-11-20T03:11:09;98008.56;;;7.23;100.00
9474;BME280;8865;47.636;7.692;2022-11-20T03:13:35;97994.59;;;7.24;100.00
9474;BME280;8865;47.636;7.692;2022-11-20T03:16:07;98000.63;;;7.25;100.00
9474;BME280;8865;47.636;7.692;2022-11-20T03:18:33;98004.69;;;7.29;100.00
9474;BME280;8865;47.636;7.692;2022-11-20T03:21:01;98006.09;;;7.33;100.00
9474;BME280;8865;47.636;7.692;2022-11-20T03:23:29;98006.81;;;7.35;100.00
9474;BME280;8865;47.636;7.692;2022-11-20T03:25:55;97997.81;;;7.39;100.00
9474;BME280;8865;47.636;7.692;2022-11-20T03:28:21;98002.22;;;7.39;100.00
9474;BME280;8865;47.636;7.692;2022-11-20T03:30:50;98006.22;;;7.43;100.00
9474;BME280;8865;47.636;7.692;2022-11-20T03:33:16;98014.53;;;7.48;100.00
9474;BME280;8865;47.636;7.692;2022-11-20T03:35:42;98010.25;;;7.47;100.00
9474;BME280;8865;47.636;7.692;2022-11-20T03:38:08;98011.81;;;7.49;100.00
9474;BME280;8865;47.636;7.692;2022-11-20T03:40:34;98020.56;;;7.48;100.00
9474;BME280;8865;47.636;7.692;2022-11-20T03:43:00;98013.56;;;7.49;100.00
9474;BME280;8865;47.636;7.692;2022-11-20T03:45:26;98014.41;;;7.49;100.00
9474;BME280;8865;47.636;7.692;2022-11-20T03:47:52;98012.84;;;7.47;100.00
9474;BME280;8865;47.636;7.692;2022-11-20T03:50:18;98018.66;;;7.50;100.00
9474;BME280;8865;47.636;7.692;2022-11-20T03:52:44;98023.03;;;7.50;100.00
9474;BME280;8865;47.636;7.692;2022-11-20T03:55:10;98015.22;;;7.50;100.00
9474;BME280;8865;47.636;7.692;2022-11-20T03:57:36;98015.81;;;7.54;100.00
9474;BME280;8865;47.636;7.692;2022-11-20T04:00:03;98023.38;;;7.57;100.00
9474;BME280;8865;47.636;7.692;2022-11-20T04:02:29;98023.28;;;7.58;100.00
9474;BME280;8865;47.636;7.692;2022-11-20T04:04:55;98023.16;;;7.60;100.00
9474;BME280;8865;47.636;7.692;2022-11-20T04:07:21;98027.66;;;7.58;100.00
9474;BME280;8865;47.636;7.692;2022-11-20T04:09:48;98023.50;;;7.55;100.00
9474;BME280;8865;47.636;7.692;2022-11-20T04:12:13;98022.69;;;7.55;100.00
9474;BME280;8865;47.636;7.692;2022-11-20T04:14:39;98024.25;;;7.57;100.00
9474;BME280;8865;47.636;7.692;2022-11-20T04:17:05;98025.06;;;7.58;100.00
9474;BME280;8865;47.636;7.692;2022-11-20T04:19:31;98026.47;;;7.50;100.00
9474;BME280;8865;47.636;7.692;2022-11-20T04:21:57;98016.16;;;7.49;100.00
9474;BME280;8865;47.636;7.692;2022-11-20T04:24:26;98020.22;;;7.42;100.00
9474;BME280;8865;47.636;7.692;2022-11-20T04:26:52;98021.72;;;7.44;100.00
9474;BME280;8865;47.636;7.692;2022-11-20T04:29:18;98019.38;;;7.41;100.00
9474;BME280;8865;47.636;7.692;2022-11-20T04:31:44;98021.16;;;7.41;100.00
9474;BME280;8865;47.636;7.692;2022-11-20T04:34:11;98024.34;;;7.33;100.00
9474;BME280;8865;47.636;7.692;2022-11-20T04:36:37;98018.53;;;7.29;100.00
9474;BME280;8865;47.636;7.692;2022-11-20T04:39:04;98018.41;;;7.31;100.00
9474;BME280;8865;47.636;7.692;2022-11-20T04:41:33;98025.63;;;7.27;100.00
9474;BME280;8865;47.636;7.692;2022-11-20T04:44:01;98024.69;;;7.28;100.00
9474;BME280;8865;47.636;7.692;2022-11-20T04:46:37;98016.03;;;7.28;100.00
9474;BME280;8865;47.636;7.692;2022-11-20T04:49:04;98017.94;;;7.26;100.00
9474;BME280;8865;47.636;7.692;2022-11-20T04:51:31;98017.22;;;7.24;100.00
9474;BME280;8865;47.636;7.692;2022-11-20T04:53:57;98011.53;;;7.19;100.00
9474;BME280;8865;47.636;7.692;2022-11-20T04:56:23;98017.47;;;7.21;100.00
9474;BME280;8865;47.636;7.692;2022-11-20T04:58:49;98016.25;;;7.25;100.00
9474;BME280;8865;47.636;7.692;2022-11-20T05:01:18;98013.31;;;7.18;100.00
9474;BME280;8865;47.636;7.692;2022-11-20T05:03:45;98019.22;;;7.20;100.00
9474;BME280;8865;47.636;7.692;2022-11-20T05:06:13;98014.97;;;7.19;100.00
9474;BME280;8865;47.636;7.692;2022-11-20T05:08:39;98011.53;;;7.19;100.00
9474;BME280;8865;47.636;7.692;2022-11-20T05:11:14;98009.88;;;7.18;100.00
9474;BME280;8865;47.636;7.692;2022-11-20T05:13:40;98008.22;;;7.17;100.00
9474;BME280;8865;47.636;7.692;2022-11-20T05:16:08;98003.25;;;7.13;100.00
9474;BME280;8865;47.636;7.692;2022-11-20T05:18:35;98006.56;;;7.15;100.00
9474;BME280;8865;47.636;7.692;2022-11-20T05:21:02;98011.66;;;7.17;100.00
9474;BME280;8865;47.636;7.692;2022-11-20T05:23:30;98014.63;;;7.24;100.00
9474;BME280;8865;47.636;7.692;2022-11-20T05:25:57;98017.81;;;7.27;100.00
9474;BME280;8865;47.636;7.692;2022-11-20T05:28:23;98018.88;;;7.25;100.00
9474;BME280;8865;47.636;7.692;2022-11-20T05:30:50;98015.91;;;7.29;100.00
9474;BME280;8865;47.636;7.692;2022-11-20T05:33:19;98014.16;;;7.30;100.00
9474;BME280;8865;47.636;7.692;2022-11-20T05:35:44;98012.25;;;7.32;100.00
9474;BME280;8865;47.636;7.692;2022-11-20T05:38:11;98016.28;;;7.36;100.00
9474;BME280;8865;47.636;7.692;2022-11-20T05:40:37;98012.84;;;7.36;100.00
9474;BME280;8865;47.636;7.692;2022-11-20T05:43:03;98010.34;;;7.34;100.00
9474;BME280;8865;47.636;7.692;2022-11-20T05:45:28;98021.63;;;7.35;100.00
9474;BME280;8865;47.636;7.692;2022-11-20T05:48:00;98017.22;;;7.35;100.00
9474;BME280;8865;47.636;7.692;2022-11-20T05:50:27;98021.50;;;7.36;100.00
9474;BME280;8865;47.636;7.692;2022-11-20T05:52:53;98015.31;;;7.37;100.00
9474;BME280;8865;47.636;7.692;2022-11-20T05:55:22;98008.47;;;7.36;100.00
9474;BME280;8865;47.636;7.692;2022-11-20T05:57:48;98015.13;;;7.40;100.00
9474;BME280;8865;47.636;7.692;2022-11-20T06:00:14;98016.63;;;7.43;100.00
9474;BME280;8865;47.636;7.692;2022-11-20T06:02:40;98014.88;;;7.43;100.00
9474;BME280;8865;47.636;7.692;2022-11-20T06:05:07;98015.13;;;7.40;100.00
9474;BME280;8865;47.636;7.692;2022-11-20T06:07:36;98014.28;;;7.40;100.00
9474;BME280;8865;47.636;7.692;2022-11-20T06:10:02;98007.50;;;7.37;100.00
9474;BME280;8865;47.636;7.692;2022-11-20T06:12:28;98005.63;;;7.39;100.00
9474;BME280;8865;47.636;7.692;2022-11-20T06:14:54;98009.06;;;7.40;100.00
9474;BME280;8865;47.636;7.692;2022-11-20T06:17:20;98007.31;;;7.40;100.00
9474;BME280;8865;47.636;7.692;2022-11-20T06:19:45;98007.41;;;7.39;100.00
9474;BME280;8865;47.636;7.692;2022-11-20T06:22:11;98007.41;;;7.39;100.00
9474;BME280;8865;47.636;7.692;2022-11-20T06:24:37;98004.91;;;7.37;100.00
9474;BME280;8865;47.636;7.692;2022-11-20T06:27:03;98011.09;;;7.36;100.00
9474;BME280;8865;47.636;7.692;2022-11-20T06:29:29;98015.94;;;7.41;100.00
9474;BME280;8865;47.636;7.692;2022-11-20T06:31:55;98019.75;;;7.48;100.00
9474;BME280;8865;47.636;7.692;2022-11-20T06:34:21;98018.78;;;7.49;100.00
9474;BME280;8865;47.636;7.692;2022-11-20T06:36:47;98021.03;;;7.54;100.00
9474;BME280;8865;47.636;7.692;2022-11-20T06:39:13;98017.47;;;7.55;100.00
9474;BME280;8865;47.636;7.692;2022-11-20T06:41:39;98016.66;;;7.54;100.00
9474;BME280;8865;47.636;7.692;2022-11-20T06:44:05;98014.75;;;7.56;100.00
9474;BME280;8865;47.636;7.692;2022-11-20T06:46:31;98013.69;;;7.47;100.00
9474;BME280;8865;47.636;7.692;2022-11-20T06:48:57;98012.75;;;7.48;100.00
9474;BME280;8865;47.636;7.692;2022-11-20T06:51:24;98006.72;;;7.48;100.00
9474;BME280;8865;47.636;7.692;2022-11-20T06:53:50;98015.00;;;7.42;100.00
9474;BME280;8865;47.636;7.692;2022-11-20T06:56:16;98014.66;;;7.46;100.00
9474;BME280;8865;47.636;7.692;2022-11-20T06:58:42;98017.94;;;7.48;100.00
9474;BME280;8865;47.636;7.692;2022-11-20T07:01:11;98022.94;;;7.51;100.00
9474;BME280;8865;47.636;7.692;2022-11-20T07:03:37;98019.50;;;7.51;100.00
9474;BME280;8865;47.636;7.692;2022-11-20T07:06:05;98017.25;;;7.58;100.00
9474;BME280;8865;47.636;7.692;2022-11-20T07:08:31;98011.66;;;7.62;100.00
9474;BME280;8865;47.636;7.692;2022-11-20T07:11:02;98011.44;;;7.65;100.00
9474;BME280;8865;47.636;7.692;2022-11-20T07:13:29;98016.03;;;7.73;100.00
9474;BME280;8865;47.636;7.692;2022-11-20T07:15:59;98011.66;;;7.74;100.00
9474;BME280;8865;47.636;7.692;2022-11-20T07:18:29;98019.59;;;7.83;100.00
9474;BME280;8865;47.636;7.692;2022-11-20T07:20:55;98021.72;;;7.90;100.00
9474;BME280;8865;47.636;7.692;2022-11-20T07:23:21;98020.38;;;7.95;100.00
9474;BME280;8865;47.636;7.692;2022-11-20T07:25:47;98025.47;;;7.97;100.00
9474;BME280;8865;47.636;7.692;2022-11-20T07:28:13;98016.84;;;7.96;100.00
9474;BME280;8865;47.636;7.692;2022-11-20T07:30:39;98032.94;;;8.01;100.00
9474;BME280;8865;47.636;7.692;2022-11-20T07:33:05;98032.69;;;8.04;100.00
9474;BME280;8865;47.636;7.692;2022-11-20T07:35:31;98023.22;;;8.03;100.00
9474;BME280;8865;47.636;7.692;2022-11-20T07:37:58;98038.50;;;8.08;100.00
9474;BME280;8865;47.636;7.692;2022-11-20T07:40:24;98040.63;;;8.14;100.00
9474;BME280;8865;47.636;7.692;2022-11-20T07:42:53;98033.63;;;8.15;100.00
9474;BME280;8865;47.636;7.692;2022-11-20T07:45:21;98029.22;;;8.15;100.00
9474;BME280;8865;47.636;7.692;2022-11-20T07:47:47;98027.09;;;8.20;100.00
9474;BME280;8865;47.636;7.692;2022-11-20T07:50:13;98032.88;;;8.24;100.00
9474;BME280;8865;47.636;7.692;2022-11-20T07:52:42;98035.50;;;8.24;100.00
9474;BME280;8865;47.636;7.692;2022-11-20T07:55:09;98035.50;;;8.24;100.00
9474;BME280;8865;47.636;7.692;2022-11-20T07:57:35;98034.69;;;8.23;100.00
9474;BME280;8865;47.636;7.692;2022-11-20T08:00:03;98030.03;;;8.27;100.00
9474;BME280;8865;47.636;7.692;2022-11-20T08:02:30;98034.06;;;8.31;100.00
9474;BME280;8865;47.636;7.692;2022-11-20T08:04:56;98027.53;;;8.26;100.00
9474;BME280;8865;47.636;7.692;2022-11-20T08:07:22;98031.09;;;8.25;100.00
9474;BME280;8865;47.636;7.692;2022-11-20T08:09:48;98035.75;;;8.21;100.00
9474;BME280;8865;47.636;7.692;2022-11-20T08:12:18;98037.16;;;8.25;100.00
9474;BME280;8865;47.636;7.692;2022-11-20T08:15:04;98046.63;;;8.26;100.00
9474;BME280;8865;47.636;7.692;2022-11-20T08:17:31;98041.66;;;8.23;100.00
9474;BME280;8865;47.636;7.692;2022-11-20T08:19:57;98048.66;;;8.22;100.00
9474;BME280;8865;47.636;7.692;2022-11-20T08:22:23;98056.03;;;8.17;100.00
9474;BME280;8865;47.636;7.692;2022-11-20T08:24:50;98054.81;;;8.21;100.00
9474;BME280;8865;47.636;7.692;2022-11-20T08:27:16;98053.88;;;8.22;100.00
9474;BME280;8865;47.636;7.692;2022-11-20T08:29:42;98052.94;;;8.23;100.00
9474;BME280;8865;47.636;7.692;2022-11-20T08:32:11;98044.75;;;8.28;100.00
9474;BME280;8865;47.636;7.692;2022-11-20T08:34:39;98051.97;;;8.36;100.00
9474;BME280;8865;47.636;7.692;2022-11-20T08:37:05;98051.47;;;8.42;100.00
9474;BME280;8865;47.636;7.692;2022-11-20T08:39:31;98059.28;;;8.42;100.00
9474;BME280;8865;47.636;7.692;2022-11-20T08:42:00;98057.50;;;8.43;100.00
9474;BME280;8865;47.636;7.692;2022-11-20T08:44:26;98059.53;;;8.39;100.00
9474;BME280;8865;47.636;7.692;2022-11-20T08:46:52;98065.00;;;8.36;100.00
9474;BME280;8865;47.636;7.692;2022-11-20T08:49:20;98069.13;;;8.38;100.00
9474;BME280;8865;47.636;7.692;2022-11-20T08:51:47;98070.56;;;8.43;100.00
9474;BME280;8865;47.636;7.692;2022-11-20T08:54:17;98070.94;;;8.49;100.00
9474;BME280;8865;47.636;7.692;2022-11-20T08:56:46;98071.75;;;8.50;100.00
9474;BME280;8865;47.636;7.692;2022-11-20T08:59:12;98069.59;;;8.55;100.00
9474;BME280;8865;47.636;7.692;2022-11-20T09:01:38;98081.34;;;8.61;100.00
9474;BME280;8865;47.636;7.692;2022-11-20T09:04:05;98064.59;;;8.63;100.00
9474;BME280;8865;47.636;7.692;2022-11-20T09:06:33;98078.78;;;8.70;100.00
9474;BME280;8865;47.636;7.692;2022-11-20T09:08:59;98073.94;;;8.66;100.00
9474;BME280;8865;47.636;7.692;2022-11-20T09:11:25;98073.13;;;8.65;100.00
9474;BME280;8865;47.636;7.692;2022-11-20T09:13:51;98077.41;;;8.66;100.00
9474;BME280;8865;47.636;7.692;2022-11-20T09:16:17;98077.72;;;8.73;100.00
9474;BME280;8865;47.636;7.692;2022-11-20T09:18:44;98076.91;;;8.72;100.00
9474;BME280;8865;47.636;7.692;2022-11-20T09:21:12;98077.72;;;8.73;100.00
9474;BME280;8865;47.636;7.692;2022-11-20T09:23:39;98077.91;;;8.81;100.00
9474;BME280;8865;47.636;7.692;2022-11-20T09:26:09;98086.66;;;8.91;100.00
9474;BME280;8865;47.636;7.692;2022-11-20T09:28:36;98087.81;;;8.99;100.00
9474;BME280;8865;47.636;7.692;2022-11-20T09:31:07;98082.59;;;8.99;100.00
9474;BME280;8865;47.636;7.692;2022-11-20T09:33:33;98093.75;;;9.01;100.00
9474;BME280;8865;47.636;7.692;2022-11-20T09:36:00;98092.94;;;9.00;100.00
9474;BME280;8865;47.636;7.692;2022-11-20T09:38:26;98096.75;;;8.96;100.00
9474;BME280;8865;47.636;7.692;2022-11-20T09:41:03;98095.78;;;8.97;100.00
9474;BME280;8865;47.636;7.692;2022-11-20T09:43:59;98096.34;;;9.01;100.00
9474;BME280;8865;47.636;7.692;2022-11-20T09:46:40;98091.13;;;9.01;100.00
9474;BME280;8865;47.636;7.692;2022-11-20T09:52:24;98091.44;;;9.07;100.00
9474;BME280;8865;47.636;7.692;2022-11-20T09:54:54;98097.13;;;9.13;100.00
9474;BME280;8865;47.636;7.692;2022-11-20T09:57:23;98088.53;;;9.22;100.00
9474;BME280;8865;47.636;7.692;2022-11-20T09:59:56;98087.63;;;9.33;100.00
9474;BME280;8865;47.636;7.692;2022-11-20T10:04:55;98077.69;;;9.26;100.00
9474;BME280;8865;47.636;7.692;2022-11-20T10:09:57;98088.16;;;9.26;100.00
9474;BME280;8865;47.636;7.692;2022-11-20T10:15:29;98088.19;;;9.15;100.00
9474;BME280;8865;47.636;7.692;2022-11-20T10:18:25;98087.44;;;9.24;100.00
9474;BME280;8865;47.636;7.692;2022-11-20T10:21:03;98086.78;;;9.32;100.00
9474;BME280;8865;47.636;7.692;2022-11-20T10:29:29;98084.63;;;9.58;100.00
9474;BME280;8865;47.636;7.692;2022-11-20T10:32:12;98079.44;;;9.78;100.00
9474;BME280;8865;47.636;7.692;2022-11-20T10:34:50;98085.59;;;9.98;100.00
9474;BME280;8865;47.636;7.692;2022-11-20T10:37:23;98081.34;;;9.97;100.00
9474;BME280;8865;47.636;7.692;2022-11-20T10:39:56;98070.19;;;10.05;100.00
9474;BME280;8865;47.636;7.692;2022-11-20T10:42:53;98070.75;;;10.18;100.00
9474;BME280;8865;47.636;7.692;2022-11-20T10:48:14;98069.47;;;10.53;100.00
9474;BME280;8865;47.636;7.692;2022-11-20T10:50:58;98059.97;;;10.52;100.00
9474;BME280;8865;47.636;7.692;2022-11-20T10:56:38;98046.03;;;10.81;100.00
9474;BME280;8865;47.636;7.692;2022-11-20T11:02:52;98031.69;;;10.95;100.00
9474;BME280;8865;47.636;7.692;2022-11-20T11:08:09;98027.47;;;10.64;100.00
9474;BME280;8865;47.636;7.692;2022-11-20T11:13:19;98026.28;;;10.18;100.00
9474;BME280;8865;47.636;7.692;2022-11-20T11:15:45;98020.88;;;10.00;100.00
9474;BME280;8865;47.636;7.692;2022-11-20T11:18:23;98022.03;;;9.76;100.00
9474;BME280;8865;47.636;7.692;2022-11-20T11:20:53;98025.84;;;9.62;100.00
9474;BME280;8865;47.636;7.692;2022-11-20T11:23:35;98012.63;;;9.54;100.00
9474;BME280;8865;47.636;7.692;2022-11-20T11:26:04;98010.66;;;9.46;100.00
9474;BME280;8865;47.636;7.692;2022-11-20T11:28:30;98001.81;;;9.38;100.00
9474;BME280;8865;47.636;7.692;2022-11-20T11:30:57;98001.38;;;9.33;100.00
9474;BME280;8865;47.636;7.692;2022-11-20T11:33:28;97999.22;;;9.47;100.00
9474;BME280;8865;47.636;7.692;2022-11-20T11:36:16;97988.91;;;9.87;100.00
9474;BME280;8865;47.636;7.692;2022-11-20T11:38:50;97980.63;;;11.18;100.00
9474;BME280;8865;47.636;7.692;2022-11-20T11:41:27;97974.97;;;12.42;100.00
9474;BME280;8865;47.636;7.692;2022-11-20T11:44:00;97968.38;;;15.50;91.01
9474;BME280;8865;47.636;7.692;2022-11-20T11:46:53;97959.28;;;20.16;61.64
9474;BME280;8865;47.636;7.692;2022-11-20T11:49:20;97940.06;;;23.63;44.21
9474;BME280;8865;47.636;7.692;2022-11-20T11:54:17;97926.66;;;24.30;37.02
9474;BME280;8865;47.636;7.692;2022-11-20T11:56:45;97927.22;;;24.74;35.88
9474;BME280;8865;47.636;7.692;2022-11-20T11:59:18;97918.94;;;25.00;34.45
9474;BME280;8865;47.636;7.692;2022-11-20T12:01:52;97911.53;;;22.32;36.87
9474;BME280;8865;47.636;7.692;2022-11-20T12:04:46;97900.78;;;21.03;38.51
9474;BME280;8865;47.636;7.692;2022-11-20T12:09:51;97914.31;;;18.61;42.22
9474;BME280;8865;47.636;7.692;2022-11-20T12:12:27;97910.81;;;18.54;43.35
9474;BME280;8865;47.636;7.692;2022-11-20T12:14:57;97908.75;;;18.28;44.53
9474;BME280;8865;47.636;7.692;2022-11-20T12:17:24;97912.19;;;17.19;46.13
9474;BME280;8865;47.636;7.692;2022-11-20T12:19:51;97919.72;;;16.16;49.91
9474;BME280;8865;47.636;7.692;2022-11-20T12:25:02;97913.81;;;15.82;55.38
9474;BME280;8865;47.636;7.692;2022-11-20T12:39:03;97903.22;;;18.79;45.56
9474;BME280;8865;47.636;7.692;2022-11-20T12:41:35;97912.63;;;17.07;50.43
9474;BME280;8865;47.636;7.692;2022-11-20T12:56:19;97915.47;;;13.38;84.38
9474;BME280;8865;47.636;7.692;2022-11-20T13:01:40;97915.25;;;12.44;93.77
9474;BME280;8865;47.636;7.692;2022-11-20T13:04:43;97930.09;;;12.18;98.03
9474;BME280;8865;47.636;7.692;2022-11-20T13:07:14;97926.94;;;11.96;100.00
9474;BME280;8865;47.636;7.692;2022-11-20T13:09:49;97912.78;;;12.07;100.00
9474;BME280;8865;47.636;7.692;2022-11-20T13:12:40;97910.47;;;12.22;100.00
9474;BME280;8865;47.636;7.692;2022-11-20T13:15:26;97900.78;;;12.04;100.00
9474;BME280;8865;47.636;7.692;2022-11-20T13:18:07;97895.81;;;11.83;100.00
9474;BME280;8865;47.636;7.692;2022-11-20T13:20:34;97889.28;;;11.69;100.00
9474;BME280;8865;47.636;7.692;2022-11-20T13:23:01;97887.13;;;11.55;100.00
9474;BME280;8865;47.636;7.692;2022-11-20T13:25:36;97879.63;;;11.42;100.00
9474;BME280;8865;47.636;7.692;2022-11-20T13:28:25;97880.22;;;11.36;100.00
9474;BME280;8865;47.636;7.692;2022-11-20T13:30:53;97874.16;;;11.35;100.00
9474;BME280;8865;47.636;7.692;2022-11-20T13:36:06;97865.84;;;12.74;97.96
9474;BME280;8865;47.636;7.692;2022-11-20T13:38:48;97867.00;;;12.72;93.02
9474;BME280;8865;47.636;7.692;2022-11-20T13:41:26;97868.00;;;12.53;97.04
9474;BME280;8865;47.636;7.692;2022-11-20T13:46:40;97864.50;;;12.00;100.00
9474;BME280;8865;47.636;7.692;2022-11-20T13:49:10;97867.25;;;11.80;100.00
9474;BME280;8865;47.636;7.692;2022-11-20T13:51:47;97854.81;;;11.64;100.00
9474;BME280;8865;47.636;7.692;2022-11-20T14:00:17;97844.38;;;12.08;100.00
9474;BME280;8865;47.636;7.692;2022-11-20T14:05:26;97839.72;;;12.20;100.00
9474;BME280;8865;47.636;7.692;2022-11-20T14:07:53;97841.13;;;12.14;100.00
9474;BME280;8865;47.636;7.692;2022-11-20T14:10:26;97835.31;;;12.03;100.00
9474;BME280;8865;47.636;7.692;2022-11-20T14:12:53;97827.44;;;11.85;100.00
9474;BME280;8865;47.636;7.692;2022-11-20T14:15:32;97826.47;;;11.68;100.00
9474;BME280;8865;47.636;7.692;2022-11-20T14:17:59;97810.50;;;11.61;100.00
9474;BME280;8865;47.636;7.692;2022-11-20T14:20:37;97815.66;;;11.53;100.00
9474;BME280;8865;47.636;7.692;2022-11-20T14:23:04;97823.75;;;11.41;100.00
9474;BME280;8865;47.636;7.692;2022-11-20T14:25:31;97812.41;;;11.23;100.00
9474;BME280;8865;47.636;7.692;2022-11-20T14:28:01;97819.78;;;11.10;100.00
9474;BME280;8865;47.636;7.692;2022-11-20T14:30:50;97820.97;;;10.97;100.00
9474;BME280;8865;47.636;7.692;2022-11-20T14:33:16;97814.25;;;10.85;100.00
9474;BME280;8865;47.636;7.692;2022-11-20T14:35:48;97810.56;;;10.78;100.00
9474;BME280;8865;47.636;7.692;2022-11-20T14:38:21;97804.69;;;10.66;100.00
9474;BME280;8865;47.636;7.692;2022-11-20T14:40:50;97801.38;;;10.64;100.00
9474;BME280;8865;47.636;7.692;2022-11-20T14:45:46;97787.19;;;10.66;100.00
9474;BME280;8865;47.636;7.692;2022-11-20T14:48:15;97773.66;;;10.71;100.00
9474;BME280;8865;47.636;7.692;2022-11-20T14:50:42;97769.63;;;10.77;100.00
9474;BME280;8865;47.636;7.692;2022-11-20T14:53:24;97764.94;;;10.80;100.00
9474;BME280;8865;47.636;7.692;2022-11-20T14:55:58;97767.69;;;10.79;100.00
9474;BME280;8865;47.636;7.692;2022-11-20T14:58:30;97771.28;;;10.78;100.00